sensor_id;sensor_type;location;lat;lon;timestamp;P1;durP1;ratioP1;P2;durP2;ratioP2
24813;SDS011;12904;50.088;11.414;2022-09-30T00:01:25;7.82;;;6.90;;
24813;SDS011;12904;50.088;11.414;2022-09-30T00:03:51;7.18;;;6.47;;
24813;SDS011;12904;50.088;11.414;2022-09-30T00:06:18;7.97;;;7.22;;
24813;SDS011;12904;50.088;11.414;2022-09-30T00:08:44;10.10;;;7.57;;
24813;SDS011;12904;50.088;11.414;2022-09-30T00:11:11;8.25;;;7.28;;
24813;SDS011;12904;50.088;11.414;2022-09-30T00:13:42;9.00;;;7.40;;
24813;SDS011;12904;50.088;11.414;2022-09-30T00:16:10;8.60;;;7.72;;
24813;SDS011;12904;50.088;11.414;2022-09-30T00:18:38;10.43;;;9.27;;
24813;SDS011;12904;50.088;11.414;2022-09-30T00:21:04;9.13;;;8.25;;
24813;SDS011;12904;50.088;11.414;2022-09-30T00:23:30;16.23;;;9.00;;
24813;SDS011;12904;50.088;11.414;2022-09-30T00:25:57;8.52;;;7.82;;
24813;SDS011;12904;50.088;11.414;2022-09-30T00:28:24;8.52;;;7.78;;
24813;SDS011;12904;50.088;11.414;2022-09-30T00:30:51;9.93;;;9.13;;
24813;SDS011;12904;50.088;11.414;2022-09-30T00:33:16;10.15;;;8.85;;
24813;SDS011;12904;50.088;11.414;2022-09-30T00:35:42;10.85;;;9.07;;
24813;SDS011;12904;50.088;11.414;2022-09-30T00:38:07;9.25;;;8.20;;
24813;SDS011;12904;50.088;11.414;2022-09-30T00:40:33;8.23;;;7.32;;
24813;SDS011;12904;50.088;11.414;2022-09-30T00:43:04;6.53;;;5.93;;
24813;SDS011;12904;50.088;11.414;2022-09-30T00:45:37;6.55;;;6.05;;
24813;SDS011;12904;50.088;11.414;2022-09-30T00:58:15;10.65;;;8.65;;
24813;SDS011;12904;50.088;11.414;2022-09-30T01:03:19;9.90;;;8.43;;
24813;SDS011;12904;50.088;11.414;2022-09-30T01:05:47;11.20;;;8.23;;
24813;SDS011;12904;50.088;11.414;2022-09-30T01:08:14;11.55;;;7.97;;
24813;SDS011;12904;50.088;11.414;2022-09-30T01:10:42;13.27;;;8.07;;
24813;SDS011;12904;50.088;11.414;2022-09-30T01:13:08;26.75;;;8.95;;
24813;SDS011;12904;50.088;11.414;2022-09-30T01:15:50;31.58;;;9.50;;
24813;SDS011;12904;50.088;11.414;2022-09-30T01:21:34;19.33;;;8.63;;
24813;SDS011;12904;50.088;11.414;2022-09-30T01:36:09;83.22;;;8.20;;
24813;SDS011;12904;50.088;11.414;2022-09-30T01:57:56;30.83;;;8.27;;
24813;SDS011;12904;50.088;11.414;2022-09-30T02:00:35;78.15;;;9.48;;
24813;SDS011;12904;50.088;11.414;2022-09-30T02:03:07;45.42;;;8.65;;
24813;SDS011;12904;50.088;11.414;2022-09-30T02:05:44;57.58;;;10.13;;
24813;SDS011;12904;50.088;11.414;2022-09-30T02:10:58;40.78;;;8.07;;
24813;SDS011;12904;50.088;11.414;2022-09-30T02:13:30;21.30;;;8.35;;
24813;SDS011;12904;50.088;11.414;2022-09-30T02:16:07;65.97;;;10.02;;
24813;SDS011;12904;50.088;11.414;2022-09-30T02:18:39;44.30;;;8.50;;
24813;SDS011;12904;50.088;11.414;2022-09-30T02:21:08;55.38;;;8.45;;
24813;SDS011;12904;50.088;11.414;2022-09-30T02:23:38;24.25;;;7.38;;
24813;SDS011;12904;50.088;11.414;2022-09-30T02:26:08;58.30;;;8.00;;
24813;SDS011;12904;50.088;11.414;2022-09-30T02:28:39;49.50;;;7.88;;
24813;SDS011;12904;50.088;11.414;2022-09-30T02:31:08;44.17;;;6.93;;
24813;SDS011;12904;50.088;11.414;2022-09-30T02:33:40;109.65;;;8.43;;
24813;SDS011;12904;50.088;11.414;2022-09-30T02:37:14;93.43;;;8.43;;
24813;SDS011;12904;50.088;11.414;2022-09-30T02:42:03;126.63;;;8.17;;
24813;SDS011;12904;50.088;11.414;2022-09-30T02:44:34;144.75;;;8.55;;
24813;SDS011;12904;50.088;11.414;2022-09-30T02:58:30;81.30;;;6.65;;
24813;SDS011;12904;50.088;11.414;2022-09-30T03:01:01;134.38;;;8.65;;
24813;SDS011;12904;50.088;11.414;2022-09-30T03:03:41;69.60;;;6.63;;
24813;SDS011;12904;50.088;11.414;2022-09-30T03:06:13;117.75;;;7.38;;
24813;SDS011;12904;50.088;11.414;2022-09-30T03:08:40;90.78;;;7.90;;
24813;SDS011;12904;50.088;11.414;2022-09-30T03:11:06;126.75;;;7.88;;
24813;SDS011;12904;50.088;11.414;2022-09-30T03:16:30;96.22;;;6.82;;
24813;SDS011;12904;50.088;11.414;2022-09-30T03:30:18;31.95;;;6.50;;
24813;SDS011;12904;50.088;11.414;2022-09-30T03:35:31;56.30;;;6.50;;
24813;SDS011;12904;50.088;11.414;2022-09-30T03:38:51;38.25;;;5.70;;
24813;SDS011;12904;50.088;11.414;2022-09-30T03:44:01;13.25;;;4.35;;
24813;SDS011;12904;50.088;11.414;2022-09-30T03:46:37;22.48;;;5.28;;
24813;SDS011;12904;50.088;11.414;2022-09-30T03:49:16;43.72;;;5.38;;
24813;SDS011;12904;50.088;11.414;2022-09-30T03:51:46;33.33;;;4.50;;
24813;SDS011;12904;50.088;11.414;2022-09-30T03:54:12;72.18;;;5.85;;
24813;SDS011;12904;50.088;11.414;2022-09-30T03:56:38;41.47;;;6.40;;
24813;SDS011;12904;50.088;11.414;2022-09-30T03:59:20;14.65;;;5.10;;
24813;SDS011;12904;50.088;11.414;2022-09-30T04:01:48;40.60;;;6.25;;
24813;SDS011;12904;50.088;11.414;2022-09-30T04:04:14;21.88;;;8.55;;
24813;SDS011;12904;50.088;11.414;2022-09-30T04:06:40;20.33;;;6.90;;
24813;SDS011;12904;50.088;11.414;2022-09-30T04:09:05;19.98;;;5.65;;
24813;SDS011;12904;50.088;11.414;2022-09-30T04:11:31;14.93;;;5.63;;
24813;SDS011;12904;50.088;11.414;2022-09-30T04:13:56;44.28;;;5.90;;
24813;SDS011;12904;50.088;11.414;2022-09-30T04:16:22;18.73;;;5.97;;
24813;SDS011;12904;50.088;11.414;2022-09-30T04:18:49;46.80;;;7.43;;
24813;SDS011;12904;50.088;11.414;2022-09-30T04:21:14;107.53;;;8.85;;
24813;SDS011;12904;50.088;11.414;2022-09-30T04:23:40;50.88;;;7.40;;
24813;SDS011;12904;50.088;11.414;2022-09-30T04:26:08;11.05;;;6.05;;
24813;SDS011;12904;50.088;11.414;2022-09-30T04:28:36;90.20;;;8.23;;
24813;SDS011;12904;50.088;11.414;2022-09-30T04:31:03;18.90;;;6.10;;
24813;SDS011;12904;50.088;11.414;2022-09-30T04:33:30;77.55;;;7.22;;
24813;SDS011;12904;50.088;11.414;2022-09-30T04:35:57;36.95;;;7.10;;
24813;SDS011;12904;50.088;11.414;2022-09-30T04:38:23;34.42;;;6.78;;
24813;SDS011;12904;50.088;11.414;2022-09-30T04:40:50;39.47;;;6.68;;
24813;SDS011;12904;50.088;11.414;2022-09-30T04:43:17;46.42;;;6.90;;
24813;SDS011;12904;50.088;11.414;2022-09-30T04:45:44;60.63;;;6.72;;
24813;SDS011;12904;50.088;11.414;2022-09-30T04:48:11;18.02;;;6.93;;
24813;SDS011;12904;50.088;11.414;2022-09-30T04:50:37;27.88;;;7.40;;
24813;SDS011;12904;50.088;11.414;2022-09-30T04:53:03;110.25;;;8.32;;
24813;SDS011;12904;50.088;11.414;2022-09-30T04:55:29;66.00;;;6.53;;
24813;SDS011;12904;50.088;11.414;2022-09-30T04:57:55;132.88;;;8.63;;
24813;SDS011;12904;50.088;11.414;2022-09-30T05:00:21;44.90;;;7.65;;
24813;SDS011;12904;50.088;11.414;2022-09-30T05:02:47;305.20;;;13.88;;
24813;SDS011;12904;50.088;11.414;2022-09-30T05:05:12;253.98;;;12.95;;
24813;SDS011;12904;50.088;11.414;2022-09-30T05:07:38;406.50;;;17.52;;
24813;SDS011;12904;50.088;11.414;2022-09-30T05:10:04;53.50;;;6.47;;
24813;SDS011;12904;50.088;11.414;2022-09-30T05:12:32;283.15;;;12.73;;
24813;SDS011;12904;50.088;11.414;2022-09-30T05:14:58;170.63;;;10.38;;
24813;SDS011;12904;50.088;11.414;2022-09-30T05:17:24;215.27;;;11.20;;
24813;SDS011;12904;50.088;11.414;2022-09-30T05:19:50;201.02;;;10.82;;
24813;SDS011;12904;50.088;11.414;2022-09-30T05:22:15;227.35;;;11.85;;
24813;SDS011;12904;50.088;11.414;2022-09-30T05:24:41;226.93;;;11.02;;
24813;SDS011;12904;50.088;11.414;2022-09-30T05:27:07;132.57;;;8.20;;
24813;SDS011;12904;50.088;11.414;2022-09-30T05:29:32;138.90;;;8.20;;
24813;SDS011;12904;50.088;11.414;2022-09-30T05:31:58;46.30;;;5.85;;
24813;SDS011;12904;50.088;11.414;2022-09-30T05:34:24;124.80;;;8.23;;
24813;SDS011;12904;50.088;11.414;2022-09-30T05:36:50;102.53;;;7.00;;
24813;SDS011;12904;50.088;11.414;2022-09-30T05:39:15;132.93;;;8.88;;
24813;SDS011;12904;50.088;11.414;2022-09-30T05:41:41;145.98;;;9.15;;
24813;SDS011;12904;50.088;11.414;2022-09-30T05:44:06;171.18;;;10.13;;
24813;SDS011;12904;50.088;11.414;2022-09-30T05:46:33;98.00;;;8.13;;
24813;SDS011;12904;50.088;11.414;2022-09-30T05:48:59;246.15;;;11.57;;
24813;SDS011;12904;50.088;11.414;2022-09-30T05:51:25;146.32;;;8.80;;
24813;SDS011;12904;50.088;11.414;2022-09-30T05:53:51;178.32;;;9.85;;
24813;SDS011;12904;50.088;11.414;2022-09-30T05:56:16;116.53;;;7.45;;
24813;SDS011;12904;50.088;11.414;2022-09-30T05:58:42;161.32;;;8.77;;
24813;SDS011;12904;50.088;11.414;2022-09-30T06:01:11;105.07;;;6.75;;
24813;SDS011;12904;50.088;11.414;2022-09-30T06:03:39;60.17;;;5.97;;
24813;SDS011;12904;50.088;11.414;2022-09-30T06:06:05;142.15;;;8.27;;
24813;SDS011;12904;50.088;11.414;2022-09-30T06:08:31;41.33;;;5.68;;
24813;SDS011;12904;50.088;11.414;2022-09-30T06:10:57;58.05;;;5.70;;
24813;SDS011;12904;50.088;11.414;2022-09-30T06:13:23;56.55;;;5.85;;
24813;SDS011;12904;50.088;11.414;2022-09-30T06:15:59;23.88;;;5.95;;
24813;SDS011;12904;50.088;11.414;2022-09-30T06:18:26;115.15;;;10.80;;
24813;SDS011;12904;50.088;11.414;2022-09-30T06:20:56;128.88;;;9.23;;
24813;SDS011;12904;50.088;11.414;2022-09-30T06:23:26;71.68;;;8.00;;
24813;SDS011;12904;50.088;11.414;2022-09-30T06:25:53;110.22;;;8.48;;
24813;SDS011;12904;50.088;11.414;2022-09-30T06:28:19;75.68;;;10.27;;
24813;SDS011;12904;50.088;11.414;2022-09-30T06:30:46;138.52;;;11.13;;
24813;SDS011;12904;50.088;11.414;2022-09-30T06:33:12;32.10;;;7.38;;
24813;SDS011;12904;50.088;11.414;2022-09-30T06:35:38;63.28;;;9.50;;
24813;SDS011;12904;50.088;11.414;2022-09-30T06:38:08;117.45;;;6.78;;
24813;SDS011;12904;50.088;11.414;2022-09-30T06:40:39;133.10;;;8.32;;
24813;SDS011;12904;50.088;11.414;2022-09-30T06:43:05;51.20;;;6.38;;
24813;SDS011;12904;50.088;11.414;2022-09-30T06:45:31;215.07;;;13.50;;
24813;SDS011;12904;50.088;11.414;2022-09-30T06:48:00;112.65;;;9.38;;
24813;SDS011;12904;50.088;11.414;2022-09-30T06:50:28;100.03;;;8.80;;
24813;SDS011;12904;50.088;11.414;2022-09-30T06:52:59;148.93;;;8.18;;
24813;SDS011;12904;50.088;11.414;2022-09-30T06:55:26;138.25;;;9.10;;
24813;SDS011;12904;50.088;11.414;2022-09-30T06:57:53;178.02;;;8.65;;
24813;SDS011;12904;50.088;11.414;2022-09-30T07:00:20;114.00;;;7.20;;
24813;SDS011;12904;50.088;11.414;2022-09-30T07:02:46;25.73;;;4.63;;
24813;SDS011;12904;50.088;11.414;2022-09-30T07:05:15;33.05;;;5.35;;
24813;SDS011;12904;50.088;11.414;2022-09-30T07:07:42;48.75;;;5.63;;
24813;SDS011;12904;50.088;11.414;2022-09-30T07:10:08;129.90;;;8.13;;
24813;SDS011;12904;50.088;11.414;2022-09-30T07:12:34;114.95;;;7.82;;
24813;SDS011;12904;50.088;11.414;2022-09-30T07:15:00;97.10;;;8.07;;
24813;SDS011;12904;50.088;11.414;2022-09-30T07:17:26;130.27;;;8.07;;
24813;SDS011;12904;50.088;11.414;2022-09-30T07:19:52;85.07;;;7.78;;
24813;SDS011;12904;50.088;11.414;2022-09-30T07:22:18;100.28;;;7.82;;
24813;SDS011;12904;50.088;11.414;2022-09-30T07:24:51;104.03;;;7.43;;
24813;SDS011;12904;50.088;11.414;2022-09-30T07:27:17;66.47;;;6.70;;
24813;SDS011;12904;50.088;11.414;2022-09-30T07:29:43;75.10;;;6.60;;
24813;SDS011;12904;50.088;11.414;2022-09-30T07:32:09;95.10;;;7.47;;
24813;SDS011;12904;50.088;11.414;2022-09-30T07:34:36;70.05;;;7.45;;
24813;SDS011;12904;50.088;11.414;2022-09-30T07:37:10;90.38;;;8.50;;
24813;SDS011;12904;50.088;11.414;2022-09-30T07:39:39;54.20;;;5.40;;
24813;SDS011;12904;50.088;11.414;2022-09-30T07:42:06;78.18;;;5.55;;
24813;SDS011;12904;50.088;11.414;2022-09-30T07:44:32;56.25;;;5.22;;
24813;SDS011;12904;50.088;11.414;2022-09-30T07:46:59;25.33;;;5.25;;
24813;SDS011;12904;50.088;11.414;2022-09-30T07:49:25;69.93;;;6.43;;
24813;SDS011;12904;50.088;11.414;2022-09-30T07:51:52;59.40;;;7.70;;
24813;SDS011;12904;50.088;11.414;2022-09-30T07:54:24;55.20;;;7.30;;
24813;SDS011;12904;50.088;11.414;2022-09-30T07:56:52;73.53;;;6.85;;
24813;SDS011;12904;50.088;11.414;2022-09-30T07:59:18;53.85;;;7.68;;
24813;SDS011;12904;50.088;11.414;2022-09-30T08:01:44;17.52;;;7.03;;
24813;SDS011;12904;50.088;11.414;2022-09-30T08:04:11;19.35;;;5.85;;
24813;SDS011;12904;50.088;11.414;2022-09-30T08:06:39;27.30;;;6.47;;
24813;SDS011;12904;50.088;11.414;2022-09-30T08:09:06;22.10;;;6.53;;
24813;SDS011;12904;50.088;11.414;2022-09-30T08:11:33;11.63;;;5.47;;
24813;SDS011;12904;50.088;11.414;2022-09-30T08:14:00;16.33;;;6.60;;
24813;SDS011;12904;50.088;11.414;2022-09-30T08:16:27;15.40;;;5.63;;
24813;SDS011;12904;50.088;11.414;2022-09-30T08:18:59;21.30;;;6.60;;
24813;SDS011;12904;50.088;11.414;2022-09-30T08:21:26;45.67;;;8.25;;
24813;SDS011;12904;50.088;11.414;2022-09-30T08:23:53;21.00;;;6.72;;
24813;SDS011;12904;50.088;11.414;2022-09-30T08:26:19;16.48;;;8.60;;
24813;SDS011;12904;50.088;11.414;2022-09-30T08:28:45;17.65;;;9.50;;
24813;SDS011;12904;50.088;11.414;2022-09-30T08:31:12;60.45;;;9.63;;
24813;SDS011;12904;50.088;11.414;2022-09-30T08:33:38;18.98;;;7.30;;
24813;SDS011;12904;50.088;11.414;2022-09-30T08:36:04;77.63;;;8.70;;
24813;SDS011;12904;50.088;11.414;2022-09-30T08:38:32;13.88;;;6.93;;
24813;SDS011;12904;50.088;11.414;2022-09-30T08:47:08;15.60;;;6.13;;
24813;SDS011;12904;50.088;11.414;2022-09-30T08:50:46;6.70;;;5.18;;
24813;SDS011;12904;50.088;11.414;2022-09-30T08:52:41;5.35;;;4.85;;
24813;SDS011;12904;50.088;11.414;2022-09-30T08:55:46;29.30;;;6.45;;
24813;SDS011;12904;50.088;11.414;2022-09-30T08:58:23;6.15;;;5.50;;
24813;SDS011;12904;50.088;11.414;2022-09-30T09:00:53;18.83;;;6.18;;
24813;SDS011;12904;50.088;11.414;2022-09-30T09:03:25;7.85;;;6.00;;
24813;SDS011;12904;50.088;11.414;2022-09-30T09:06:03;6.07;;;5.35;;
24813;SDS011;12904;50.088;11.414;2022-09-30T09:08:46;7.55;;;5.93;;
24813;SDS011;12904;50.088;11.414;2022-09-30T09:14:21;6.10;;;5.55;;
24813;SDS011;12904;50.088;11.414;2022-09-30T09:17:00;6.05;;;5.55;;
24813;SDS011;12904;50.088;11.414;2022-09-30T09:19:47;5.15;;;4.75;;
24813;SDS011;12904;50.088;11.414;2022-09-30T09:22:23;6.50;;;5.90;;
24813;SDS011;12904;50.088;11.414;2022-09-30T09:24:52;6.32;;;5.72;;
24813;SDS011;12904;50.088;11.414;2022-09-30T09:27:29;6.20;;;5.80;;
24813;SDS011;12904;50.088;11.414;2022-09-30T09:30:31;5.70;;;5.18;;
24813;SDS011;12904;50.088;11.414;2022-09-30T09:33:14;7.22;;;6.68;;
24813;SDS011;12904;50.088;11.414;2022-09-30T09:38:34;6.45;;;5.85;;
24813;SDS011;12904;50.088;11.414;2022-09-30T09:54:47;4.35;;;4.00;;
24813;SDS011;12904;50.088;11.414;2022-09-30T09:57:19;4.38;;;3.97;;
24813;SDS011;12904;50.088;11.414;2022-09-30T10:00:08;3.33;;;3.03;;
24813;SDS011;12904;50.088;11.414;2022-09-30T10:05:32;4.78;;;3.33;;
24813;SDS011;12904;50.088;11.414;2022-09-30T10:10:42;3.08;;;2.67;;
24813;SDS011;12904;50.088;11.414;2022-09-30T10:13:15;3.10;;;2.80;;
24813;SDS011;12904;50.088;11.414;2022-09-30T10:15:44;4.00;;;2.75;;
24813;SDS011;12904;50.088;11.414;2022-09-30T10:18:22;5.03;;;2.88;;
24813;SDS011;12904;50.088;11.414;2022-09-30T10:20:52;4.37;;;3.60;;
24813;SDS011;12904;50.088;11.414;2022-09-30T10:23:37;3.63;;;2.90;;
24813;SDS011;12904;50.088;11.414;2022-09-30T10:34:02;4.90;;;2.50;;
24813;SDS011;12904;50.088;11.414;2022-09-30T10:36:54;7.50;;;3.33;;
24813;SDS011;12904;50.088;11.414;2022-09-30T10:44:44;1.90;;;1.67;;
24813;SDS011;12904;50.088;11.414;2022-09-30T10:47:17;3.25;;;2.60;;
24813;SDS011;12904;50.088;11.414;2022-09-30T10:52:21;2.70;;;1.63;;
24813;SDS011;12904;50.088;11.414;2022-09-30T10:54:52;2.30;;;1.73;;
24813;SDS011;12904;50.088;11.414;2022-09-30T10:57:20;1.98;;;1.30;;
24813;SDS011;12904;50.088;11.414;2022-09-30T10:59:47;2.58;;;1.50;;
24813;SDS011;12904;50.088;11.414;2022-09-30T11:05:27;2.08;;;1.88;;
24813;SDS011;12904;50.088;11.414;2022-09-30T11:08:18;2.85;;;1.40;;
24813;SDS011;12904;50.088;11.414;2022-09-30T11:11:14;2.00;;;1.30;;
24813;SDS011;12904;50.088;11.414;2022-09-30T11:35:21;2.15;;;1.60;;
24813;SDS011;12904;50.088;11.414;2022-09-30T11:48:34;2.83;;;1.42;;
24813;SDS011;12904;50.088;11.414;2022-09-30T12:01:58;2.17;;;1.70;;
24813;SDS011;12904;50.088;11.414;2022-09-30T12:04:38;1.52;;;1.30;;
24813;SDS011;12904;50.088;11.414;2022-09-30T12:07:15;2.65;;;1.80;;
24813;SDS011;12904;50.088;11.414;2022-09-30T12:09:45;3.97;;;1.75;;
24813;SDS011;12904;50.088;11.414;2022-09-30T12:12:17;3.13;;;2.20;;
24813;SDS011;12904;50.088;11.414;2022-09-30T12:14:54;2.60;;;2.03;;
24813;SDS011;12904;50.088;11.414;2022-09-30T12:17:32;3.03;;;2.22;;
24813;SDS011;12904;50.088;11.414;2022-09-30T12:20:05;2.75;;;1.90;;
24813;SDS011;12904;50.088;11.414;2022-09-30T12:22:41;6.05;;;2.15;;
24813;SDS011;12904;50.088;11.414;2022-09-30T12:28:07;3.17;;;2.10;;
24813;SDS011;12904;50.088;11.414;2022-09-30T12:31:00;4.75;;;2.20;;
24813;SDS011;12904;50.088;11.414;2022-09-30T12:33:41;3.33;;;2.22;;
24813;SDS011;12904;50.088;11.414;2022-09-30T12:36:53;5.60;;;1.80;;
24813;SDS011;12904;50.088;11.414;2022-09-30T12:42:24;2.50;;;2.25;;
24813;SDS011;12904;50.088;11.414;2022-09-30T12:47:47;6.53;;;2.67;;
24813;SDS011;12904;50.088;11.414;2022-09-30T12:50:22;2.97;;;2.40;;
24813;SDS011;12904;50.088;11.414;2022-09-30T12:52:52;2.67;;;2.00;;
24813;SDS011;12904;50.088;11.414;2022-09-30T12:57:53;2.88;;;2.58;;
24813;SDS011;12904;50.088;11.414;2022-09-30T13:00:23;3.10;;;2.08;;
24813;SDS011;12904;50.088;11.414;2022-09-30T13:02:55;2.45;;;1.85;;
24813;SDS011;12904;50.088;11.414;2022-09-30T13:05:51;2.28;;;1.60;;
24813;SDS011;12904;50.088;11.414;2022-09-30T13:08:40;3.20;;;1.70;;
24813;SDS011;12904;50.088;11.414;2022-09-30T13:19:39;1.80;;;1.50;;
24813;SDS011;12904;50.088;11.414;2022-09-30T13:27:48;3.85;;;1.98;;
24813;SDS011;12904;50.088;11.414;2022-09-30T13:32:47;3.90;;;2.10;;
24813;SDS011;12904;50.088;11.414;2022-09-30T13:43:06;1.92;;;1.60;;
24813;SDS011;12904;50.088;11.414;2022-09-30T13:45:40;2.88;;;1.67;;
24813;SDS011;12904;50.088;11.414;2022-09-30T13:48:12;1.75;;;1.65;;
24813;SDS011;12904;50.088;11.414;2022-09-30T13:50:46;3.22;;;1.80;;
24813;SDS011;12904;50.088;11.414;2022-09-30T13:53:15;2.22;;;1.60;;
24813;SDS011;12904;50.088;11.414;2022-09-30T13:55:47;3.30;;;1.73;;
24813;SDS011;12904;50.088;11.414;2022-09-30T14:00:57;2.92;;;2.35;;
24813;SDS011;12904;50.088;11.414;2022-09-30T14:23:14;4.65;;;1.90;;
24813;SDS011;12904;50.088;11.414;2022-09-30T14:25:44;1.85;;;1.75;;
24813;SDS011;12904;50.088;11.414;2022-09-30T14:31:31;1.75;;;1.65;;
24813;SDS011;12904;50.088;11.414;2022-09-30T14:33:58;2.42;;;1.60;;
24813;SDS011;12904;50.088;11.414;2022-09-30T14:36:24;2.00;;;1.70;;
24813;SDS011;12904;50.088;11.414;2022-09-30T14:38:56;2.15;;;1.85;;
24813;SDS011;12904;50.088;11.414;2022-09-30T14:41:24;3.75;;;1.88;;
24813;SDS011;12904;50.088;11.414;2022-09-30T14:43:54;3.33;;;1.90;;
24813;SDS011;12904;50.088;11.414;2022-09-30T14:46:39;2.92;;;1.65;;
24813;SDS011;12904;50.088;11.414;2022-09-30T14:49:15;3.15;;;1.60;;
24813;SDS011;12904;50.088;11.414;2022-09-30T14:51:52;2.25;;;1.60;;
24813;SDS011;12904;50.088;11.414;2022-09-30T14:54:25;3.50;;;1.90;;
24813;SDS011;12904;50.088;11.414;2022-09-30T14:56:54;3.30;;;1.77;;
24813;SDS011;12904;50.088;11.414;2022-09-30T14:59:25;3.28;;;1.55;;
24813;SDS011;12904;50.088;11.414;2022-09-30T15:01:57;2.53;;;1.83;;
24813;SDS011;12904;50.088;11.414;2022-09-30T15:04:34;4.85;;;1.88;;
24813;SDS011;12904;50.088;11.414;2022-09-30T15:07:04;2.97;;;2.00;;
24813;SDS011;12904;50.088;11.414;2022-09-30T15:09:53;1.83;;;1.73;;
24813;SDS011;12904;50.088;11.414;2022-09-30T15:12:25;4.13;;;2.25;;
24813;SDS011;12904;50.088;11.414;2022-09-30T15:14:56;4.57;;;2.00;;
24813;SDS011;12904;50.088;11.414;2022-09-30T15:17:24;4.63;;;2.40;;
24813;SDS011;12904;50.088;11.414;2022-09-30T15:19:54;3.80;;;1.85;;
24813;SDS011;12904;50.088;11.414;2022-09-30T15:22:22;2.40;;;2.20;;
24813;SDS011;12904;50.088;11.414;2022-09-30T15:24:50;1.75;;;1.65;;
24813;SDS011;12904;50.088;11.414;2022-09-30T15:29:57;2.60;;;1.50;;
24813;SDS011;12904;50.088;11.414;2022-09-30T15:32:27;2.42;;;1.90;;
24813;SDS011;12904;50.088;11.414;2022-09-30T15:35:06;2.78;;;1.70;;
24813;SDS011;12904;50.088;11.414;2022-09-30T15:37:39;2.33;;;1.70;;
24813;SDS011;12904;50.088;11.414;2022-09-30T15:40:14;1.95;;;1.65;;
24813;SDS011;12904;50.088;11.414;2022-09-30T15:43:02;8.38;;;3.72;;
24813;SDS011;12904;50.088;11.414;2022-09-30T15:45:40;3.72;;;2.22;;
24813;SDS011;12904;50.088;11.414;2022-09-30T15:50:50;1.50;;;1.40;;
24813;SDS011;12904;50.088;11.414;2022-09-30T15:53:21;3.13;;;1.42;;
24813;SDS011;12904;50.088;11.414;2022-09-30T15:55:49;3.97;;;2.03;;
24813;SDS011;12904;50.088;11.414;2022-09-30T16:00:50;2.40;;;1.60;;
24813;SDS011;12904;50.088;11.414;2022-09-30T16:06:03;3.25;;;1.80;;
24813;SDS011;12904;50.088;11.414;2022-09-30T16:08:45;2.58;;;1.60;;
24813;SDS011;12904;50.088;11.414;2022-09-30T16:11:18;2.70;;;1.70;;
24813;SDS011;12904;50.088;11.414;2022-09-30T16:13:47;5.80;;;1.98;;
24813;SDS011;12904;50.088;11.414;2022-09-30T16:16:17;2.50;;;1.55;;
24813;SDS011;12904;50.088;11.414;2022-09-30T16:18:45;3.83;;;1.48;;
24813;SDS011;12904;50.088;11.414;2022-09-30T16:23:52;3.07;;;1.80;;
24813;SDS011;12904;50.088;11.414;2022-09-30T16:26:19;2.40;;;1.80;;
24813;SDS011;12904;50.088;11.414;2022-09-30T16:28:49;3.70;;;1.88;;
24813;SDS011;12904;50.088;11.414;2022-09-30T16:31:15;2.15;;;1.63;;
24813;SDS011;12904;50.088;11.414;2022-09-30T16:33:42;2.67;;;2.00;;
24813;SDS011;12904;50.088;11.414;2022-09-30T16:36:08;2.97;;;1.73;;
24813;SDS011;12904;50.088;11.414;2022-09-30T16:38:35;2.95;;;1.95;;
24813;SDS011;12904;50.088;11.414;2022-09-30T16:41:01;3.90;;;2.22;;
24813;SDS011;12904;50.088;11.414;2022-09-30T16:43:28;2.78;;;2.28;;
24813;SDS011;12904;50.088;11.414;2022-09-30T16:45:56;2.58;;;2.13;;
24813;SDS011;12904;50.088;11.414;2022-09-30T16:48:23;6.95;;;2.83;;
24813;SDS011;12904;50.088;11.414;2022-09-30T16:50:56;3.50;;;1.90;;
24813;SDS011;12904;50.088;11.414;2022-09-30T16:53:29;3.38;;;2.35;;
24813;SDS011;12904;50.088;11.414;2022-09-30T16:55:55;5.47;;;4.22;;
24813;SDS011;12904;50.088;11.414;2022-09-30T16:58:20;3.83;;;3.40;;
24813;SDS011;12904;50.088;11.414;2022-09-30T17:00:46;5.85;;;3.38;;
24813;SDS011;12904;50.088;11.414;2022-09-30T17:03:13;3.97;;;3.05;;
24813;SDS011;12904;50.088;11.414;2022-09-30T17:05:42;13.95;;;3.90;;
24813;SDS011;12904;50.088;11.414;2022-09-30T17:08:12;6.03;;;3.58;;
24813;SDS011;12904;50.088;11.414;2022-09-30T17:10:39;4.97;;;3.92;;
24813;SDS011;12904;50.088;11.414;2022-09-30T17:13:07;5.43;;;3.53;;
24813;SDS011;12904;50.088;11.414;2022-09-30T17:15:32;3.72;;;3.33;;
24813;SDS011;12904;50.088;11.414;2022-09-30T17:18:03;4.50;;;3.22;;
24813;SDS011;12904;50.088;11.414;2022-09-30T17:20:31;3.30;;;3.00;;
24813;SDS011;12904;50.088;11.414;2022-09-30T17:22:58;4.78;;;3.53;;
24813;SDS011;12904;50.088;11.414;2022-09-30T17:25:23;4.32;;;3.72;;
24813;SDS011;12904;50.088;11.414;2022-09-30T17:27:49;5.88;;;4.82;;
24813;SDS011;12904;50.088;11.414;2022-09-30T17:30:15;6.18;;;4.32;;
24813;SDS011;12904;50.088;11.414;2022-09-30T17:32:42;5.07;;;4.50;;
24813;SDS011;12904;50.088;11.414;2022-09-30T17:35:08;9.38;;;5.88;;
24813;SDS011;12904;50.088;11.414;2022-09-30T17:37:34;6.78;;;5.80;;
24813;SDS011;12904;50.088;11.414;2022-09-30T17:40:06;7.88;;;6.43;;
24813;SDS011;12904;50.088;11.414;2022-09-30T17:42:54;11.85;;;6.57;;
24813;SDS011;12904;50.088;11.414;2022-09-30T17:45:31;13.27;;;7.03;;
24813;SDS011;12904;50.088;11.414;2022-09-30T17:47:57;7.70;;;6.75;;
24813;SDS011;12904;50.088;11.414;2022-09-30T17:50:23;7.65;;;6.85;;
24813;SDS011;12904;50.088;11.414;2022-09-30T17:52:49;8.30;;;7.60;;
24813;SDS011;12904;50.088;11.414;2022-09-30T17:55:15;12.18;;;7.70;;
24813;SDS011;12904;50.088;11.414;2022-09-30T17:57:40;13.45;;;7.82;;
24813;SDS011;12904;50.088;11.414;2022-09-30T18:00:06;9.30;;;7.15;;
24813;SDS011;12904;50.088;11.414;2022-09-30T18:02:32;8.13;;;6.43;;
24813;SDS011;12904;50.088;11.414;2022-09-30T18:04:58;7.25;;;6.22;;
24813;SDS011;12904;50.088;11.414;2022-09-30T18:07:24;7.50;;;5.95;;
24813;SDS011;12904;50.088;11.414;2022-09-30T18:09:51;10.20;;;6.15;;
24813;SDS011;12904;50.088;11.414;2022-09-30T18:12:17;8.45;;;6.50;;
24813;SDS011;12904;50.088;11.414;2022-09-30T18:14:43;8.90;;;7.50;;
24813;SDS011;12904;50.088;11.414;2022-09-30T18:17:09;10.32;;;7.65;;
24813;SDS011;12904;50.088;11.414;2022-09-30T18:19:34;8.60;;;6.97;;
24813;SDS011;12904;50.088;11.414;2022-09-30T18:22:00;7.80;;;6.95;;
24813;SDS011;12904;50.088;11.414;2022-09-30T18:24:26;12.63;;;8.55;;
24813;SDS011;12904;50.088;11.414;2022-09-30T18:27:10;10.30;;;7.80;;
24813;SDS011;12904;50.088;11.414;2022-09-30T18:29:36;13.88;;;7.13;;
24813;SDS011;12904;50.088;11.414;2022-09-30T18:32:02;10.45;;;7.20;;
24813;SDS011;12904;50.088;11.414;2022-09-30T18:34:29;7.20;;;6.70;;
24813;SDS011;12904;50.088;11.414;2022-09-30T18:36:55;9.02;;;7.38;;
24813;SDS011;12904;50.088;11.414;2022-09-30T18:39:22;9.68;;;5.97;;
24813;SDS011;12904;50.088;11.414;2022-09-30T18:41:47;7.75;;;5.93;;
24813;SDS011;12904;50.088;11.414;2022-09-30T18:44:13;6.60;;;6.00;;
24813;SDS011;12904;50.088;11.414;2022-09-30T18:46:39;8.00;;;6.68;;
24813;SDS011;12904;50.088;11.414;2022-09-30T18:49:06;7.43;;;6.45;;
24813;SDS011;12904;50.088;11.414;2022-09-30T18:51:32;6.57;;;5.45;;
24813;SDS011;12904;50.088;11.414;2022-09-30T18:53:58;7.93;;;6.65;;
24813;SDS011;12904;50.088;11.414;2022-09-30T18:56:28;9.27;;;7.60;;